< Typhoon 200201 2002 Season Typhoon 200203 >
Typhoon 200202 (MITAG)
General InformationTrack Information on Google MapsDetailed Wind InformationList of All Images || Disaster Info.ResourceGoogle EarthGE AnimationAtom FeedGeoJSON
Detalied Best Track (Time Zone = UTC)
Year Month Day Hour Lat. Long. Pressure (hPa) Wind (kt) Class Image Chart
2002 2 26 12 5.8 155.7 1006 0 2 Image Chart
2002 2 26 18 6.0 155.5 1004 0 2 Image Chart
2002 2 27 00 6.2 155.3 1004 0 2 Image Chart
2002 2 27 06 6.5 155.0 1002 0 2 Image Chart
2002 2 27 12 6.7 154.6 1002 0 2 Image Chart
2002 2 27 18 6.8 153.9 1000 0 2 Image Chart
2002 2 28 00 7.0 153.5 1000 0 2 Image Chart
2002 2 28 06 7.1 152.2 998 0 2 Image Chart
2002 2 28 12 7.1 151.2 998 35 3 Image Chart
2002 2 28 18 7.1 150.3 996 40 3 Image Chart
2002 3 1 00 6.7 149.0 990 45 3 Image Chart
2002 3 1 06 6.5 147.9 985 50 4 Image Chart
2002 3 1 12 6.6 147.0 985 50 4 Image Chart
2002 3 1 18 6.7 145.6 980 55 4 Image Chart
2002 3 2 00 7.1 144.2 975 60 4 Image Chart
2002 3 2 06 7.7 142.7 970 65 5 Image Chart
2002 3 2 12 8.1 141.0 965 70 5 Image Chart
2002 3 2 18 8.5 139.4 960 75 5 Image Chart
2002 3 3 00 8.8 137.9 960 75 5 Image Chart
2002 3 3 06 9.5 136.8 960 75 5 Image Chart
2002 3 3 12 10.2 135.3 960 75 5 Image Chart
2002 3 3 18 10.6 134.2 955 75 5 Image Chart
2002 3 4 00 10.7 133.2 945 80 5 Image Chart
2002 3 4 06 11.1 132.5 940 85 5 Image Chart
2002 3 4 12 11.9 132.0 940 85 5 Image Chart
2002 3 4 18 12.5 131.2 940 85 5 Image Chart
2002 3 5 00 13.1 130.6 940 90 5 Image Chart
2002 3 5 06 13.7 130.1 930 95 5 Image Chart
2002 3 5 12 14.3 129.9 930 95 5 Image Chart
2002 3 5 18 14.9 130.0 930 95 5 Image Chart
2002 3 6 00 15.5 130.1 930 95 5 Image Chart
2002 3 6 06 16.1 130.4 935 95 5 Image Chart
2002 3 6 12 16.7 131.0 940 85 5 Image Chart
2002 3 6 18 17.2 131.6 950 80 5 Image Chart
2002 3 7 00 17.6 132.4 955 75 5 Image Chart
2002 3 7 06 18.1 133.6 960 70 5 Image Chart
2002 3 7 12 18.3 134.6 970 60 4 Image Chart
2002 3 7 18 18.3 135.1 980 50 4 Image Chart
2002 3 8 00 17.7 135.4 990 45 3 Image Chart
2002 3 8 06 17.2 135.3 996 40 3 Image Chart
2002 3 8 12 16.7 134.8 1004 0 2 Image Chart
2002 3 8 18 16.2 133.8 1012 0 2 Image Chart
2002 3 9 00 15.4 132.9 1012 0 2 Image Chart
Japan Meteorological Agency Best Track Data | Correction Date : 2006-01-18
< Typhoon 200201 2002 Season Typhoon 200203 >

Help